createdAt,value
2023-04-10T00:00:30.887Z,101261.25
2023-04-10T00:02:59.148Z,101257.34
2023-04-10T00:05:26.133Z,101253.88
2023-04-10T00:07:53.477Z,101249.13
2023-04-10T00:10:20.073Z,101250.75
2023-04-10T00:12:46.617Z,101243.56
2023-04-10T00:15:13.265Z,101245.84
2023-04-10T00:17:39.873Z,101233.06
2023-04-10T00:20:06.895Z,101212.78
2023-04-10T00:22:33.452Z,101221.97
2023-04-10T00:25:00.192Z,101203.94
2023-04-10T00:27:26.664Z,101203.09
2023-04-10T00:29:53.196Z,101199.22
2023-04-10T00:32:19.821Z,101190.88
2023-04-10T00:34:46.436Z,101194.75
2023-04-10T00:37:12.937Z,101185.91
2023-04-10T00:39:39.549Z,101184.28
2023-04-10T00:42:09.452Z,101181.50
2023-04-10T00:44:37.456Z,101172.31
2023-04-10T00:47:04.967Z,101175.09
2023-04-10T00:49:31.576Z,101167.41
2023-04-10T00:51:58.535Z,101163.16
2023-04-10T00:54:26.016Z,101169.03
2023-04-10T00:56:52.752Z,101162.66
2023-04-10T00:59:20.733Z,101159.88
2023-04-10T01:01:47.691Z,101147.63
2023-04-10T01:04:14.534Z,101143.53
2023-04-10T01:06:50.366Z,101137.97
2023-04-10T01:09:35.865Z,101137.97
2023-04-10T01:12:20.754Z,101137.97
2023-04-10T01:14:56.485Z,101138.78
2023-04-10T01:17:29.136Z,101135.50
2023-04-10T01:20:00.852Z,101132.59
2023-04-10T01:22:52.786Z,101126.03
2023-04-10T01:25:31.397Z,101122.72
2023-04-10T01:27:58.129Z,101123.56
2023-04-10T01:30:25.165Z,101124.38
2023-04-10T01:32:52.762Z,101122.44
2023-04-10T01:35:19.858Z,101124.38
2023-04-10T01:37:47.705Z,101133.22
2023-04-10T01:40:15.614Z,101136.00
2023-04-10T01:42:45.478Z,101126.66
2023-04-10T01:45:16.188Z,101136.47
2023-04-10T01:47:44.703Z,101137.78
2023-04-10T01:50:12.143Z,101129.25
2023-04-10T01:52:39.904Z,101128.91
2023-04-10T01:55:16.489Z,101124.50
2023-04-10T01:57:49.282Z,101132.84
2023-04-10T02:00:17.666Z,101132.84
2023-04-10T02:02:44.769Z,101127.94
2023-04-10T02:05:11.434Z,101128.75
2023-04-10T02:07:38.148Z,101119.59
2023-04-10T02:10:09.261Z,101110.75
2023-04-10T02:12:45.966Z,101103.84
2023-04-10T02:15:12.927Z,101106.31
2023-04-10T02:17:40.603Z,101102.22
2023-04-10T02:20:08.894Z,101099.13
2023-04-10T02:22:36.519Z,101099.75
2023-04-10T02:25:04.803Z,101088.63
2023-04-10T02:27:36.352Z,101092.25
2023-04-10T02:30:03.590Z,101077.53
2023-04-10T02:32:33.386Z,101085.56
2023-04-10T02:35:00.353Z,101082.28
2023-04-10T02:37:26.878Z,101074.75
2023-04-10T02:39:54.878Z,101075.06
2023-04-10T02:42:23.662Z,101068.69
2023-04-10T02:44:52.000Z,101069.31
2023-04-10T02:47:18.881Z,101062.31
2023-04-10T02:49:47.696Z,101059.53
2023-04-10T02:52:17.372Z,101058.69
2023-04-10T02:54:44.027Z,101051.53
2023-04-10T02:57:10.836Z,101055.13
2023-04-10T02:59:37.772Z,101055.44
2023-04-10T03:02:05.789Z,101059.03
2023-04-10T03:04:35.711Z,101056.56
2023-04-10T03:07:03.125Z,101049.38
2023-04-10T03:09:29.677Z,101048.22
2023-04-10T03:11:56.524Z,101051.00
2023-04-10T03:14:23.182Z,101046.09
2023-04-10T03:16:50.455Z,101043.31
2023-04-10T03:19:17.494Z,101042.16
2023-04-10T03:21:45.237Z,101046.09
2023-04-10T03:24:11.791Z,101044.44
2023-04-10T03:26:38.426Z,101039.72
2023-04-10T03:29:05.221Z,101041.69
2023-04-10T03:31:33.924Z,101040.03
2023-04-10T03:34:01.496Z,101039.53
2023-04-10T03:36:28.323Z,101034.47
2023-04-10T03:38:54.890Z,101033.16
2023-04-10T03:41:22.651Z,101039.53
2023-04-10T03:43:51.341Z,101031.69
2023-04-10T03:46:17.980Z,101033.47
2023-04-10T03:48:44.902Z,101031.50
2023-04-10T03:51:11.590Z,101030.69
2023-04-10T03:53:38.234Z,101026.28
2023-04-10T03:56:09.907Z,101032.94
2023-04-10T03:58:36.702Z,101017.94
2023-04-10T04:01:05.124Z,101015.66
2023-04-10T04:03:38.608Z,101010.72
2023-04-10T04:06:25.510Z,101008.28
2023-04-10T04:09:15.070Z,101003.84
2023-04-10T04:12:01.797Z,100998.00
2023-04-10T04:14:54.238Z,101006.63
2023-04-10T04:17:27.054Z,101003.34
2023-04-10T04:20:06.400Z,101011.34
2023-04-10T04:23:10.907Z,101013.63
2023-04-10T04:25:49.706Z,101012.00
2023-04-10T04:28:35.204Z,101006.44
2023-04-10T04:31:34.072Z,100998.44
2023-04-10T04:34:16.825Z,100996.47
2023-04-10T04:37:12.890Z,100999.91
2023-04-10T04:39:51.684Z,100994.34
2023-04-10T04:51:52.937Z,100991.06
2023-04-10T04:54:45.773Z,100990.03
2023-04-10T04:57:23.748Z,100985.63
2023-04-10T05:00:06.440Z,100990.53
2023-04-10T05:02:51.731Z,100989.72
2023-04-10T05:08:31.850Z,100990.03
2023-04-10T05:11:09.627Z,100983.66
2023-04-10T05:19:53.984Z,100968.47
2023-04-10T05:22:38.078Z,100964.03
2023-04-10T05:25:33.478Z,100968.47
2023-04-10T05:28:09.455Z,100966.81
2023-04-10T05:31:00.617Z,100957.34
2023-04-10T05:33:47.562Z,100961.78
2023-04-10T05:42:09.961Z,100954.09
2023-04-10T05:44:45.986Z,100953.25
2023-04-10T05:47:35.797Z,100946.88
2023-04-10T05:50:22.223Z,100943.28
2023-04-10T05:53:14.223Z,100953.56
2023-04-10T05:56:02.119Z,100957.78
2023-04-10T05:58:45.639Z,100965.81
2023-04-10T06:01:14.771Z,100969.72
2023-04-10T06:03:50.549Z,100964.16
2023-04-10T06:06:17.431Z,100968.06
2023-04-10T06:08:45.148Z,100956.97
2023-04-10T06:11:11.944Z,100970.84
2023-04-10T06:13:41.068Z,100959.25
2023-04-10T06:16:08.087Z,100966.75
2023-04-10T06:18:34.853Z,100959.25
2023-04-10T06:21:02.101Z,100966.44
2023-04-10T06:23:30.521Z,100968.72
2023-04-10T06:25:57.218Z,100970.34
2023-04-10T06:28:24.058Z,100963.19
2023-04-10T06:30:55.105Z,100963.19
2023-04-10T06:33:29.634Z,100958.41
2023-04-10T06:35:57.386Z,100962.53
2023-04-10T06:38:23.950Z,100964.84
2023-04-10T06:40:50.910Z,100964.63
2023-04-10T06:43:17.559Z,100964.28
2023-04-10T06:45:44.281Z,100965.31
2023-04-10T06:48:11.076Z,100961.25
2023-04-10T06:50:37.725Z,100955.56
2023-04-10T06:53:04.507Z,100949.72
2023-04-10T06:55:31.253Z,100952.22
2023-04-10T06:57:57.829Z,100944.59
2023-04-10T07:00:25.018Z,100946.47
2023-04-10T07:02:51.836Z,100941.13
2023-04-10T07:05:18.493Z,100941.00
2023-04-10T07:07:45.366Z,100940.88
2023-04-10T07:10:13.021Z,100939.56
2023-04-10T07:12:39.687Z,100942.03
2023-04-10T07:15:06.809Z,100934.34
2023-04-10T07:17:33.586Z,100930.91
2023-04-10T07:20:00.401Z,100924.69
2023-04-10T07:22:27.918Z,100924.69
2023-04-10T07:24:54.629Z,100924.84
2023-04-10T07:27:21.461Z,100927.31
2023-04-10T07:29:48.011Z,100926.66
2023-04-10T07:32:14.660Z,100918.97
2023-04-10T07:34:42.174Z,100925.06
2023-04-10T07:37:08.698Z,100917.00
2023-04-10T07:39:35.237Z,100911.44
2023-04-10T07:42:01.879Z,100908.16
2023-04-10T07:44:28.773Z,100901.94
2023-04-10T07:46:56.025Z,100897.50
2023-04-10T07:49:23.186Z,100894.22
2023-04-10T07:51:49.807Z,100902.75
2023-04-10T07:54:16.475Z,100902.75
2023-04-10T07:56:43.127Z,100888.16
2023-04-10T07:59:09.634Z,100888.16
2023-04-10T08:01:36.159Z,100884.22
2023-04-10T08:04:05.518Z,100876.34
2023-04-10T08:06:32.807Z,100866.84
2023-04-10T08:08:59.554Z,100865.03
2023-04-10T08:11:27.999Z,100858.78
2023-04-10T08:13:55.893Z,100857.63
2023-04-10T08:16:26.465Z,100853.03
2023-04-10T08:18:53.856Z,100861.53
2023-04-10T08:21:21.692Z,100854.75
2023-04-10T08:23:50.242Z,100847.81
2023-04-10T08:26:17.057Z,100847.94
2023-04-10T08:28:47.337Z,100840.19
2023-04-10T08:31:14.487Z,100843.28
2023-04-10T08:33:41.547Z,100842.25
2023-04-10T08:36:12.749Z,100849.47
2023-04-10T08:38:39.630Z,100852.50
2023-04-10T08:41:06.796Z,100853.53
2023-04-10T08:43:34.756Z,100848.50
2023-04-10T08:46:01.716Z,100854.06
2023-04-10T08:48:31.877Z,100856.81
2023-04-10T08:51:00.869Z,100855.84
2023-04-10T08:53:29.027Z,100859.81
2023-04-10T08:55:55.996Z,100853.47
2023-04-10T08:58:24.114Z,100855.13
2023-04-10T09:00:51.337Z,100846.75
2023-04-10T09:03:18.311Z,100847.22
2023-04-10T09:05:45.072Z,100852.78
2023-04-10T09:08:12.307Z,100839.16
2023-04-10T09:10:39.514Z,100846.41
2023-04-10T09:13:06.387Z,100840.19
2023-04-10T09:15:52.878Z,100842.75
2023-04-10T09:18:19.438Z,100832.13
2023-04-10T09:20:51.507Z,100829.34
2023-04-10T09:23:22.152Z,100829.47
2023-04-10T09:25:49.972Z,100827.84
2023-04-10T09:28:17.827Z,100828.50
2023-04-10T09:30:44.347Z,100821.59
2023-04-10T09:33:24.330Z,100832.44
2023-04-10T09:35:51.073Z,100829.44
2023-04-10T09:38:18.890Z,100822.25
2023-04-10T09:40:46.115Z,100817.59
2023-04-10T09:43:30.278Z,100814.34
2023-04-10T09:45:57.663Z,100806.81
2023-04-10T09:48:25.444Z,100795.13
2023-04-10T09:50:52.454Z,100791.97
2023-04-10T09:53:20.461Z,100779.25
2023-04-10T09:55:50.451Z,100773.66
2023-04-10T09:58:17.668Z,100760.84
2023-04-10T10:00:48.232Z,100762.13
2023-04-10T10:03:18.942Z,100760.75
2023-04-10T10:05:49.755Z,100753.53
2023-04-10T10:08:16.764Z,100746.31
2023-04-10T10:10:48.332Z,100737.47
2023-04-10T10:13:40.824Z,100742.59
2023-04-10T10:16:11.383Z,100748.63
2023-04-10T10:18:56.936Z,100749.38
2023-04-10T10:21:23.953Z,100749.81
2023-04-10T10:23:54.943Z,100748.63
2023-04-10T10:26:23.357Z,100732.88
2023-04-10T10:28:53.063Z,100739.38
2023-04-10T10:31:21.154Z,100731.81
2023-04-10T10:33:48.034Z,100730.81
2023-04-10T10:36:17.091Z,100719.53
2023-04-10T10:38:48.261Z,100719.97
2023-04-10T10:41:18.116Z,100707.53
2023-04-10T10:43:58.630Z,100708.28
2023-04-10T10:46:38.062Z,100704.81
2023-04-10T10:49:04.714Z,100705.63
2023-04-10T10:51:44.758Z,100696.34
2023-04-10T10:54:30.700Z,100693.06
2023-04-10T10:56:57.521Z,100692.50
2023-04-10T10:59:42.826Z,100684.13
2023-04-10T11:02:16.779Z,100677.28
2023-04-10T11:04:47.302Z,100682.16
2023-04-10T11:07:14.805Z,100669.50
2023-04-10T11:09:51.680Z,100669.75
2023-04-10T11:12:20.505Z,100662.53
2023-04-10T11:14:56.735Z,100655.31
2023-04-10T11:17:41.847Z,100652.31
2023-04-10T11:20:08.621Z,100642.75
2023-04-10T11:22:55.307Z,100649.53
2023-04-10T11:25:21.913Z,100647.41
2023-04-10T11:27:49.621Z,100653.94
2023-04-10T11:30:25.716Z,100644.63
2023-04-10T11:32:52.406Z,100637.44
2023-04-10T11:35:22.051Z,100633.94
2023-04-10T11:37:48.673Z,100636.03
2023-04-10T11:40:16.751Z,100618.34
2023-04-10T11:42:43.657Z,100625.31
2023-04-10T11:45:23.033Z,100633.47
2023-04-10T11:47:53.417Z,100624.38
2023-04-10T11:50:21.381Z,100628.72
2023-04-10T11:52:51.291Z,100630.69
2023-04-10T11:55:18.154Z,100613.84
2023-04-10T11:57:45.372Z,100612.78
2023-04-10T12:00:12.176Z,100601.84
2023-04-10T12:02:53.120Z,100607.19
2023-04-10T12:05:22.848Z,100600.47
2023-04-10T12:07:50.345Z,100598.13
2023-04-10T12:10:16.863Z,100607.22
2023-04-10T12:12:43.676Z,100598.56
2023-04-10T12:15:29.021Z,100597.91
2023-04-10T12:17:56.602Z,100601.16
2023-04-10T12:20:26.661Z,100592.91
2023-04-10T12:22:56.316Z,100588.25
2023-04-10T12:25:22.846Z,100580.22
2023-04-10T12:27:50.900Z,100576.97
2023-04-10T12:30:18.251Z,100576.72
2023-04-10T12:32:51.357Z,100570.69
2023-04-10T12:35:18.085Z,100557.03
2023-04-10T12:37:52.344Z,100547.50
2023-04-10T12:40:20.685Z,100554.72
2023-04-10T12:42:47.479Z,100539.31
2023-04-10T12:45:14.653Z,100533.66
2023-04-10T12:47:48.186Z,100541.53
2023-04-10T12:50:16.135Z,100545.97
2023-04-10T12:52:43.995Z,100524.91
2023-04-10T12:55:13.489Z,100529.66
2023-04-10T12:57:41.474Z,100535.25
2023-04-10T13:00:09.726Z,100535.81
2023-04-10T13:02:37.734Z,100534.53
2023-04-10T13:05:05.459Z,100530.59
2023-04-10T13:07:32.135Z,100526.66
2023-04-10T13:09:59.029Z,100532.44
2023-04-10T13:12:26.362Z,100523.59
2023-04-10T13:14:54.162Z,100525.19
2023-04-10T13:17:24.444Z,100508.53
2023-04-10T13:19:51.565Z,100505.41
2023-04-10T13:22:18.347Z,100495.66
2023-04-10T13:24:45.040Z,100500.72
2023-04-10T13:27:12.192Z,100494.94
2023-04-10T13:29:42.371Z,100490.97
2023-04-10T13:32:09.219Z,100485.00
2023-04-10T13:34:35.948Z,100476.19
2023-04-10T13:37:03.053Z,100462.38
2023-04-10T13:39:33.633Z,100462.47
2023-04-10T13:42:02.183Z,100465.56
2023-04-10T13:44:29.283Z,100458.97
2023-04-10T13:46:55.945Z,100460.56
2023-04-10T13:49:22.485Z,100447.97
2023-04-10T13:51:49.348Z,100441.59
2023-04-10T13:54:18.859Z,100432.09
2023-04-10T13:56:46.600Z,100436.41
2023-04-10T13:59:13.758Z,100425.13
2023-04-10T14:01:40.475Z,100427.47
2023-04-10T14:04:07.169Z,100421.09
2023-04-10T14:06:33.766Z,100416.19
2023-04-10T14:09:00.373Z,100406.56
2023-04-10T14:11:26.957Z,100405.63
2023-04-10T14:13:53.715Z,100391.78
2023-04-10T14:16:20.574Z,100373.31
2023-04-10T14:18:47.305Z,100381.69
2023-04-10T14:21:13.896Z,100382.84
2023-04-10T14:23:41.125Z,100387.97
2023-04-10T14:26:08.004Z,100384.00
2023-04-10T14:28:35.031Z,100391.94
2023-04-10T14:31:01.947Z,100387.16
2023-04-10T14:33:28.843Z,100395.88
2023-04-10T14:35:55.704Z,100393.91
2023-04-10T14:38:22.399Z,100390.28
2023-04-10T14:40:50.277Z,100386.34
2023-04-10T14:43:17.249Z,100369.59
2023-04-10T14:45:44.100Z,100366.53
2023-04-10T14:48:12.893Z,100360.22
2023-04-10T14:50:39.748Z,100352.28
2023-04-10T14:53:06.352Z,100345.94
2023-04-10T14:55:32.915Z,100347.63
2023-04-10T14:57:59.387Z,100350.88
2023-04-10T15:00:26.470Z,100344.56
2023-04-10T15:02:53.298Z,100336.56
2023-04-10T15:05:20.382Z,100317.09
2023-04-10T15:07:47.020Z,100307.97
2023-04-10T15:10:13.595Z,100300.06
2023-04-10T15:12:40.289Z,100303.59
2023-04-10T15:15:07.160Z,100285.72
2023-04-10T15:17:34.122Z,100269.44
2023-04-10T15:20:01.097Z,100273.38
2023-04-10T15:22:29.327Z,100274.66
2023-04-10T15:24:55.990Z,100265.81
2023-04-10T15:27:22.567Z,100274.28
2023-04-10T15:29:49.287Z,100266.00
2023-04-10T15:32:15.976Z,100264.38
2023-04-10T15:34:42.641Z,100268.34
2023-04-10T15:37:09.281Z,100267.63
2023-04-10T15:39:37.352Z,100268.34
2023-04-10T15:42:05.461Z,100278.34
2023-04-10T15:44:32.238Z,100272.41
2023-04-10T15:46:58.945Z,100279.25
2023-04-10T15:49:36.302Z,100290.06
2023-04-10T15:52:05.224Z,100286.81
2023-04-10T15:54:33.162Z,100272.06
2023-04-10T15:56:59.723Z,100272.06
2023-04-10T15:59:26.504Z,100256.44
2023-04-10T16:01:53.335Z,100255.28
2023-04-10T16:04:20.133Z,100257.34
2023-04-10T16:06:46.922Z,100259.69
2023-04-10T16:09:24.952Z,100257.34
2023-04-10T16:11:53.153Z,100256.88
2023-04-10T16:14:19.739Z,100257.34
2023-04-10T16:16:46.534Z,100249.31
2023-04-10T16:19:13.176Z,100250.13
2023-04-10T16:21:40.075Z,100237.78
2023-04-10T16:24:06.740Z,100249.03
2023-04-10T16:26:33.529Z,100240.59
2023-04-10T16:29:00.203Z,100237.41
2023-04-10T16:31:26.905Z,100235.00
2023-04-10T16:33:53.631Z,100234.19
2023-04-10T16:36:20.236Z,100231.84
2023-04-10T16:38:49.907Z,100227.06
2023-04-10T16:41:20.907Z,100213.09
2023-04-10T16:43:47.949Z,100204.59
2023-04-10T16:46:14.686Z,100196.66
2023-04-10T16:48:41.394Z,100208.22
2023-04-10T16:51:09.585Z,100225.44
2023-04-10T16:53:36.426Z,100214.69
2023-04-10T16:56:05.192Z,100221.81
2023-04-10T16:58:33.437Z,100219.84
2023-04-10T17:01:00.435Z,100211.88
2023-04-10T17:03:27.049Z,100203.16
2023-04-10T17:05:53.641Z,100194.03
2023-04-10T17:08:20.180Z,100187.22
2023-04-10T17:10:46.773Z,100191.59
2023-04-10T17:13:13.480Z,100183.94
2023-04-10T17:15:40.291Z,100180.81
2023-04-10T17:18:06.844Z,100186.47
2023-04-10T17:20:37.232Z,100184.03
2023-04-10T17:23:04.031Z,100180.06
2023-04-10T17:25:30.808Z,100185.28
2023-04-10T17:27:57.804Z,100185.56
2023-04-10T17:30:24.395Z,100178.44
2023-04-10T17:32:50.989Z,100187.63
2023-04-10T17:35:17.631Z,100207.22
2023-04-10T17:37:44.165Z,100217.94
2023-04-10T17:40:11.137Z,100222.34
2023-04-10T17:42:37.685Z,100222.34
2023-04-10T17:45:04.495Z,100230.28
2023-04-10T17:47:31.577Z,100235.00
2023-04-10T17:49:58.318Z,100246.34
2023-04-10T17:52:24.913Z,100250.22
2023-04-10T17:54:51.401Z,100253.38
2023-04-10T17:57:18.030Z,100249.75
2023-04-10T17:59:44.516Z,100251.78
2023-04-10T18:02:11.309Z,100263.38
2023-04-10T18:04:37.941Z,100278.25
2023-04-10T18:07:04.509Z,100284.31
2023-04-10T18:09:31.136Z,100287.25
2023-04-10T18:11:57.642Z,100288.06
2023-04-10T18:14:24.207Z,100282.38
2023-04-10T18:16:50.799Z,100285.47
2023-04-10T18:19:17.467Z,100289.50
2023-04-10T18:21:43.986Z,100283.22
2023-04-10T18:24:14.209Z,100289.63
2023-04-10T18:26:40.903Z,100301.50
2023-04-10T18:29:07.609Z,100289.50
2023-04-10T18:31:34.363Z,100297.63
2023-04-10T18:34:07.724Z,100298.44
2023-04-10T18:36:35.302Z,100296.47
2023-04-10T18:39:02.041Z,100300.78
2023-04-10T18:41:28.771Z,100305.22
2023-04-10T18:44:04.410Z,100307.28
2023-04-10T18:46:32.678Z,100309.63
2023-04-10T18:49:01.060Z,100302.34
2023-04-10T18:51:28.127Z,100280.50
2023-04-10T18:53:55.138Z,100276.06
2023-04-10T18:56:22.109Z,100270.03
2023-04-10T18:58:50.138Z,100266.88
2023-04-10T19:01:17.888Z,100264.06
2023-04-10T19:03:47.242Z,100259.31
2023-04-10T19:06:15.472Z,100253.72
2023-04-10T19:08:42.248Z,100264.56
2023-04-10T19:11:09.131Z,100248.59
2023-04-10T19:13:35.766Z,100236.94
2023-04-10T19:16:05.217Z,100243.81
2023-04-10T19:18:32.320Z,100243.72
2023-04-10T19:20:59.054Z,100238.78
2023-04-10T19:23:26.422Z,100245.78
2023-04-10T19:25:54.107Z,100240.75
2023-04-10T19:28:20.897Z,100244.28
2023-04-10T19:30:47.635Z,100243.72
2023-04-10T19:33:14.371Z,100249.94
2023-04-10T19:35:41.160Z,100255.34
2023-04-10T19:38:07.722Z,100262.81
2023-04-10T19:40:34.220Z,100259.19
2023-04-10T19:43:01.998Z,100269.56
2023-04-10T19:45:29.552Z,100275.03
2023-04-10T19:47:56.754Z,100274.94
2023-04-10T19:50:23.758Z,100272.03
2023-04-10T19:52:51.394Z,100278.69
2023-04-10T19:55:19.123Z,100275.44
2023-04-10T19:57:46.006Z,100280.13
2023-04-10T20:00:13.011Z,100286.84
2023-04-10T20:02:39.923Z,100283.97
2023-04-10T20:05:07.260Z,100281.53
2023-04-10T20:07:33.915Z,100270.72
2023-04-10T20:10:03.227Z,100258.66
2023-04-10T20:12:32.972Z,100249.03
2023-04-10T20:14:59.879Z,100252.97
2023-04-10T20:17:26.909Z,100242.97
2023-04-10T20:19:53.778Z,100249.28
2023-04-10T20:22:20.382Z,100224.50
2023-04-10T20:24:47.062Z,100222.09
2023-04-10T20:27:14.726Z,100218.81
2023-04-10T20:29:41.390Z,100218.00
2023-04-10T20:32:09.679Z,100214.75
2023-04-10T20:34:36.396Z,100222.69
2023-04-10T20:37:03.130Z,100214.59
2023-04-10T20:39:29.737Z,100204.13
2023-04-10T20:41:57.390Z,100184.94
2023-04-10T20:44:24.071Z,100177.75
2023-04-10T20:46:51.077Z,100185.66
2023-04-10T20:49:17.938Z,100189.97
2023-04-10T20:51:44.616Z,100186.38
2023-04-10T20:54:11.751Z,100180.72
2023-04-10T20:56:43.555Z,100187.78
2023-04-10T20:59:11.268Z,100177.31
2023-04-10T21:01:38.411Z,100186.88
2023-04-10T21:04:05.902Z,100194.81
2023-04-10T21:06:35.846Z,100182.00
2023-04-10T21:09:05.192Z,100163.53
2023-04-10T21:11:32.257Z,100161.94
2023-04-10T21:13:58.726Z,100169.03
2023-04-10T21:16:25.528Z,100178.56
2023-04-10T21:18:53.444Z,100183.69
2023-04-10T21:21:20.346Z,100180.41
2023-04-10T21:23:46.855Z,100182.75
2023-04-10T21:26:13.644Z,100186.66
2023-04-10T21:28:40.443Z,100193.44
2023-04-10T21:31:07.180Z,100184.63
2023-04-10T21:33:33.770Z,100194.13
2023-04-10T21:36:00.531Z,100180.53
2023-04-10T21:38:27.154Z,100179.25
2023-04-10T21:40:54.217Z,100178.81
2023-04-10T21:43:21.586Z,100166.50
2023-04-10T21:45:48.404Z,100158.84
2023-04-10T21:48:15.358Z,100176.41
2023-04-10T21:50:42.466Z,100180.34
2023-04-10T21:53:09.332Z,100163.50
2023-04-10T21:55:35.995Z,100145.13
2023-04-10T21:58:02.503Z,100143.53
2023-04-10T22:00:29.141Z,100139.13
2023-04-10T22:02:55.838Z,100146.56
2023-04-10T22:05:24.477Z,100148.88
2023-04-10T22:07:51.795Z,100154.44
2023-04-10T22:10:18.514Z,100160.03
2023-04-10T22:12:48.164Z,100147.28
2023-04-10T22:15:15.839Z,100132.88
2023-04-10T22:17:42.598Z,100142.41
2023-04-10T22:20:09.581Z,100148.69
2023-04-10T22:22:36.161Z,100157.75
2023-04-10T22:25:02.933Z,100165.19
2023-04-10T22:27:29.492Z,100167.50
2023-04-10T22:30:03.208Z,100162.63
2023-04-10T22:32:31.138Z,100162.63
2023-04-10T22:34:58.767Z,100161.00
2023-04-10T22:37:25.931Z,100158.91
2023-04-10T22:39:52.632Z,100152.06
2023-04-10T22:42:19.132Z,100141.75
2023-04-10T22:44:45.696Z,100149.16
2023-04-10T22:47:12.241Z,100159.16
2023-04-10T22:49:38.991Z,100153.59
2023-04-10T22:52:05.524Z,100143.97
2023-04-10T22:54:31.995Z,100154.28
2023-04-10T22:56:58.733Z,100146.31
2023-04-10T22:59:25.381Z,100159.41
2023-04-10T23:01:52.201Z,100164.53
2023-04-10T23:04:18.989Z,100161.75
2023-04-10T23:06:45.676Z,100148.50
2023-04-10T23:09:12.432Z,100146.88
2023-04-10T23:11:39.033Z,100156.38
2023-04-10T23:14:05.912Z,100155.59
2023-04-10T23:16:32.548Z,100154.78
2023-04-10T23:18:59.198Z,100158.38
2023-04-10T23:21:27.194Z,100153.97
2023-04-10T23:23:53.806Z,100164.41
2023-04-10T23:26:20.796Z,100176.13
2023-04-10T23:28:47.599Z,100165.44
2023-04-10T23:31:14.315Z,100164.16
2023-04-10T23:33:40.851Z,100158.59
2023-04-10T23:36:07.557Z,100160.09
2023-04-10T23:38:34.125Z,100160.09
2023-04-10T23:41:02.867Z,100160.94
2023-04-10T23:43:29.467Z,100160.09
2023-04-10T23:45:55.982Z,100154.91
2023-04-10T23:48:22.568Z,100156.06
2023-04-10T23:50:49.253Z,100166.38
2023-04-10T23:53:16.122Z,100171.94
2023-04-10T23:55:43.173Z,100171.94
2023-04-10T23:58:10.118Z,100175.91
